Hav Skandic — OZ2147 — position and weather

sailwx.info

Track history (hours):
 
Tides and Currents Weather Stations Pressure Air Temp Water Temp Dewpoint Dewpoint Depression Visibility Wind Speed Wind Dir Waves Ship Positions

Hav Skandic

Last reported at 2018-Feb-18 19:05 UTC. Time now 2018-Feb-23 22:36 UTC.
Position N 59°05' E 004°53'.

Length 75 m; draft 6.1 m.

Type: Cargo ship. MMSI: 231837000.

Date/timePositionNaut miles runAvg speedWind from/ knotsBaromVisibWave heightAir tempDewpointWater temp
2018-Feb-18 19:05N 59°05' E 004°53'1 9.8
2018-Feb-18 18:59N 59°04' E 004°54'5 9.8
2018-Feb-18 18:30N 59°03' E 005°03'5 9.2
2018-Feb-18 18:00N 59°03' E 005°12'5 9.8
2018-Feb-18 17:30N 59°06' E 005°21'510.0
2018-Feb-18 17:00N 59°07' E 005°30'510.0
2018-Feb-18 16:30N 59°06' E 005°40'5 9.2
2018-Feb-18 16:00N 59°04' E 005°48'3 6.6
2018-Feb-18 15:30N 59°05' E 005°54'0 0.0
2018-Feb-18 14:58N 59°05' E 005°54'0 0.0
2018-Feb-18 14:28N 59°05' E 005°54'0 0.0
2018-Feb-18 13:58N 59°05' E 005°54'0 0.0
2018-Feb-18 13:28N 59°05' E 005°54'0 0.0
2018-Feb-18 12:58N 59°05' E 005°54'0 0.0
2018-Feb-18 12:28N 59°05' E 005°54'0 0.0
2018-Feb-18 11:58N 59°05' E 005°54'0 0.2
2018-Feb-18 11:28N 59°05' E 005°54'0 0.0
2018-Feb-18 10:58N 59°05' E 005°54'0 0.0
2018-Feb-18 10:28N 59°05' E 005°54'0 0.0
2018-Feb-18 09:58N 59°05' E 005°54'0 0.0
2018-Feb-18 09:28N 59°05' E 005°54'0 0.0
2018-Feb-18 08:55N 59°05' E 005°54'0 0.0
2018-Feb-18 08:28N 59°05' E 005°54'0 0.0
2018-Feb-18 08:00N 59°05' E 005°54'0 0.9
2018-Feb-18 07:30N 59°05' E 005°53'5 9.2
2018-Feb-18 07:00N 59°04' E 005°45'5 9.6
2018-Feb-18 06:30N 59°07' E 005°37'5 9.3
2018-Feb-18 06:00N 59°06' E 005°28'4 8.7
2018-Feb-18 05:29N 59°03' E 005°21'5 9.4
2018-Feb-18 05:00N 58°59' E 005°21'5 9.4
2018-Feb-18 04:30N 58°54' E 005°22'5 9.7
2018-Feb-18 04:00N 58°49' E 005°23'5 9.2
2018-Feb-18 03:30N 58°45' E 005°24'4 9.0
2018-Feb-18 03:00N 58°41' E 005°28'5 9.1
2018-Feb-18 02:30N 58°37' E 005°32'5 9.6
2018-Feb-18 02:00N 58°33' E 005°37'5 9.8
2018-Feb-18 01:30N 58°29' E 005°42'5 9.6
2018-Feb-18 01:00N 58°25' E 005°49'4 8.6
2018-Feb-18 00:30N 58°22' E 005°55'4 7.9
2018-Feb-18 00:00N 58°20' E 006°01'4 7.5
2018-Feb-17 23:29N 58°17' E 006°06'4 7.5
2018-Feb-17 23:01N 58°15' E 006°11'4 7.3
2018-Feb-17 22:30N 58°12' E 006°16'4 7.6
2018-Feb-17 22:00N 58°09' E 006°21'5 9.3
2018-Feb-17 21:30N 58°06' E 006°27'510.2
2018-Feb-17 21:00N 58°03' E 006°34'510.5
2018-Feb-17 20:30N 58°01' E 006°44'5 9.9
2018-Feb-17 20:00N 57°59' E 006°52'5 9.7
2018-Feb-17 19:30N 57°57' E 007°01'510.0
2018-Feb-17 18:59N 57°56' E 007°10'5 9.7
2018-Feb-17 18:30N 57°56' E 007°19'5 9.5
2018-Feb-17 17:59N 57°57' E 007°28'4 8.7
2018-Feb-17 17:30N 57°57' E 007°36'4 8.7
2018-Feb-17 17:00N 57°59' E 007°44'510.6
2018-Feb-17 16:30N 58°01' E 007°53'510.1
2018-Feb-17 15:59N 58°02' E 008°03'510.5
2018-Feb-17 15:30N 58°04' E 008°12'510.9
2018-Feb-17 15:00N 58°07' E 008°20'611.0
2018-Feb-17 14:30N 58°12' E 008°26'3 6.5
2018-Feb-17 14:00N 58°14' E 008°23'0 0.0
2018-Feb-17 13:29N 58°14' E 008°23'0 0.0
2018-Feb-17 12:58N 58°14' E 008°23'0 0.0
2018-Feb-17 12:28N 58°14' E 008°23'0 0.0
2018-Feb-17 11:59N 58°14' E 008°23'0 0.0
2018-Feb-17 11:28N 58°14' E 008°23'0 0.0
2018-Feb-17 10:58N 58°14' E 008°23'0 0.0
2018-Feb-17 10:28N 58°14' E 008°23'0 0.0
2018-Feb-17 09:58N 58°14' E 008°23'0 0.0
2018-Feb-17 09:28N 58°14' E 008°23'0 0.0
2018-Feb-17 08:58N 58°14' E 008°23'0 0.0
2018-Feb-17 08:29N 58°14' E 008°23'0 0.0
2018-Feb-17 07:59N 58°14' E 008°23'0 0.0
2018-Feb-17 07:29N 58°14' E 008°23'0 0.0
2018-Feb-17 06:59N 58°14' E 008°23'0 0.0
2018-Feb-17 06:29N 58°14' E 008°23'0 0.0
2018-Feb-17 05:58N 58°14' E 008°23'0 0.0
2018-Feb-17 05:29N 58°14' E 008°23'0 0.0
2018-Feb-17 04:58N 58°14' E 008°23'0 0.0
2018-Feb-17 04:28N 58°14' E 008°23'0 0.0
2018-Feb-17 03:59N 58°14' E 008°23'0 0.0
2018-Feb-17 03:28N 58°14' E 008°23'0 0.0
2018-Feb-17 02:58N 58°14' E 008°23'0 0.0
2018-Feb-17 02:29N 58°14' E 008°23'0 0.0
2018-Feb-17 01:59N 58°14' E 008°23'0 0.0
2018-Feb-17 01:28N 58°14' E 008°23'0 0.0
2018-Feb-17 00:59N 58°14' E 008°23'0 0.0
2018-Feb-17 00:28N 58°14' E 008°23'0 0.0
2018-Feb-16 23:58N 58°14' E 008°23'0 0.0
2018-Feb-16 23:28N 58°14' E 008°23'0 0.0
2018-Feb-16 22:59N 58°14' E 008°23'0 0.0
2018-Feb-16 22:28N 58°14' E 008°23'0 0.0
2018-Feb-16 21:58N 58°14' E 008°23'0 0.0
2018-Feb-16 21:29N 58°14' E 008°23'0 0.0
2018-Feb-16 20:58N 58°14' E 008°23'0 0.0
2018-Feb-16 20:26N 58°14' E 008°23'0 0.0
2018-Feb-16 19:58N 58°14' E 008°23'0 0.0
2018-Feb-16 19:28N 58°14' E 008°23'0 0.0
2018-Feb-16 18:58N 58°14' E 008°23'0 0.0
2018-Feb-16 18:28N 58°14' E 008°23'0 0.0
2018-Feb-16 17:58N 58°14' E 008°23'0 0.0
2018-Feb-16 17:29N 58°14' E 008°23'0 0.0
2018-Feb-16 16:58N 58°14' E 008°23'0 0.0
2018-Feb-16 16:28N 58°14' E 008°23'0 0.0
2018-Feb-16 15:59N 58°14' E 008°23'0 0.0
2018-Feb-16 15:28N 58°14' E 008°23'0 0.0
2018-Feb-16 14:58N 58°14' E 008°23'0 0.0
2018-Feb-16 14:28N 58°14' E 008°23'0 0.0
2018-Feb-16 13:59N 58°14' E 008°23'0 0.0
2018-Feb-16 13:29N 58°14' E 008°23'0 0.0
2018-Feb-16 12:58N 58°14' E 008°23'0 0.0
2018-Feb-16 12:29N 58°14' E 008°23'0 0.0
2018-Feb-16 11:58N 58°14' E 008°23'0 0.0
2018-Feb-16 11:29N 58°14' E 008°23'0 0.0
2018-Feb-16 10:58N 58°14' E 008°23'0 0.0
2018-Feb-16 10:29N 58°14' E 008°23'0 0.0
2018-Feb-16 09:59N 58°14' E 008°23'0 0.0
2018-Feb-16 09:28N 58°14' E 008°23'0 0.0
2018-Feb-16 08:59N 58°14' E 008°23'0 0.0
2018-Feb-16 08:29N 58°14' E 008°23'0 0.0
2018-Feb-16 07:59N 58°14' E 008°23'0 0.0
2018-Feb-16 07:28N 58°14' E 008°23'0 0.0
2018-Feb-16 06:58N 58°14' E 008°23'0 0.0
2018-Feb-16 06:29N 58°14' E 008°23'0 0.0
2018-Feb-16 05:59N 58°14' E 008°23'0 0.0
2018-Feb-16 05:28N 58°14' E 008°23'0 0.0
2018-Feb-16 04:59N 58°14' E 008°23'0 0.0
2018-Feb-16 04:28N 58°14' E 008°23'0 0.0
2018-Feb-16 03:58N 58°14' E 008°23'0 0.0
2018-Feb-16 03:29N 58°14' E 008°23'0 0.0
2018-Feb-16 02:59N 58°14' E 008°23'0 0.0
2018-Feb-16 02:29N 58°14' E 008°23'0 0.0
2018-Feb-16 01:59N 58°14' E 008°23'0 0.0
2018-Feb-16 01:28N 58°14' E 008°23'0 0.0
2018-Feb-16 00:58N 58°14' E 008°23'0 0.0
2018-Feb-16 00:28N 58°14' E 008°23'0 0.0
2018-Feb-15 23:59N 58°14' E 008°23'1 3.1
2018-Feb-15 23:30N 58°13' E 008°25'4 8.6
2018-Feb-15 23:00N 58°09' E 008°23'4 9.0
2018-Feb-15 22:30N 58°06' E 008°17'5 9.3
2018-Feb-15 22:00N 58°04' E 008°09'3 6.7
2018-Feb-15 21:30N 58°02' E 008°04'4 7.6
2018-Feb-15 21:00N 57°58' E 008°01'4 7.5
2018-Feb-15 20:30N 57°55' E 007°58'4 8.6
2018-Feb-15 20:00N 57°51' E 007°54'4 8.1
2018-Feb-15 19:30N 57°48' E 007°51'4 7.6
2018-Feb-15 19:00N 57°44' E 007°46'270 8.6
2018-Feb-14 11:40N 53°34' E 004°47'2 8.9
2018-Feb-14 11:24N 53°31' E 004°46'6 8.8
2018-Feb-14 10:46N 53°26' E 004°42'21 8.9
2018-Feb-14 08:23N 53°07' E 004°28'4 9.2
2018-Feb-14 07:55N 53°03' E 004°24'44 9.6
2018-Feb-14 03:22N 52°28' E 003°41'4510.2
2018-Feb-13 22:56N 51°45' E 003°18'4 9.3
2018-Feb-13 22:28N 51°41' E 003°19'6 8.9
2018-Feb-13 21:48N 51°36' E 003°23'3 8.3
2018-Feb-13 21:30N 51°33' E 003°25'4 7.8
2018-Feb-13 21:00N 51°30' E 003°28'4 7.5
2018-Feb-13 20:30N 51°27' E 003°32'4 8.3
2018-Feb-13 20:00N 51°26' E 003°39'4 8.4
2018-Feb-13 19:30N 51°23' E 003°43'510.2
2018-Feb-13 19:00N 51°21' E 003°50'510.3
2018-Feb-13 18:30N 51°24' E 003°57'3 6.7
2018-Feb-13 18:00N 51°25' E 004°02'5 9.3
2018-Feb-13 17:30N 51°22' E 004°08'4 7.3
2018-Feb-13 17:00N 51°21' E 004°14'510.0
2018-Feb-13 16:30N 51°17' E 004°19'1 2.0
2018-Feb-13 16:01N 51°17' E 004°20'0 0.0
2018-Feb-13 15:31N 51°17' E 004°20'0 0.0
2018-Feb-13 15:01N 51°17' E 004°20'1 2.6
2018-Feb-13 14:30N 51°16' E 004°21'1 1.0
2018-Feb-13 13:55N 51°15' E 004°22'0 0.0
2018-Feb-13 13:28N 51°15' E 004°22'0 0.0
2018-Feb-13 12:58N 51°15' E 004°22'0 0.0
2018-Feb-13 12:28N 51°15' E 004°22'0 0.0
2018-Feb-13 11:58N 51°15' E 004°22'0 0.0
2018-Feb-13 11:28N 51°15' E 004°22'0 0.0
2018-Feb-13 10:58N 51°15' E 004°22'0 0.0
2018-Feb-13 10:28N 51°15' E 004°22'0 0.0
2018-Feb-13 09:58N 51°15' E 004°22'0 0.0
2018-Feb-13 09:28N 51°15' E 004°22'0 0.0
2018-Feb-13 08:58N 51°15' E 004°22'0 0.0
2018-Feb-13 08:28N 51°15' E 004°22'0 0.0
2018-Feb-13 07:58N 51°15' E 004°22'0 0.0
2018-Feb-13 07:28N 51°15' E 004°22'0 0.0
2018-Feb-13 06:52N 51°15' E 004°22'0 0.0
2018-Feb-13 06:28N 51°15' E 004°22'0 0.0
2018-Feb-13 05:58N 51°15' E 004°22'0 0.0
2018-Feb-13 05:28N 51°15' E 004°22'0 0.0
2018-Feb-13 04:58N 51°15' E 004°22'0 0.0
2018-Feb-13 04:28N 51°15' E 004°22'0 0.0
2018-Feb-13 03:58N 51°15' E 004°22'0 0.0
2018-Feb-13 03:28N 51°15' E 004°22'0 0.0
2018-Feb-13 02:55N 51°15' E 004°22'0 0.0
2018-Feb-13 02:28N 51°15' E 004°22'0 0.0
2018-Feb-13 01:58N 51°15' E 004°22'0 0.0
2018-Feb-13 01:28N 51°15' E 004°22'0 0.0
2018-Feb-13 00:58N 51°15' E 004°22'0 0.0
2018-Feb-13 00:25N 51°15' E 004°22'0 0.0
2018-Feb-12 23:58N 51°15' E 004°22'0 0.0
2018-Feb-12 23:28N 51°15' E 004°22'0 0.0
2018-Feb-12 22:58N 51°15' E 004°22'0 0.0
2018-Feb-12 22:28N 51°15' E 004°22'0 0.0
2018-Feb-12 21:58N 51°15' E 004°22'0 0.0
2018-Feb-12 21:25N 51°15' E 004°22'0 0.0
2018-Feb-12 20:58N 51°15' E 004°22'0 0.0
2018-Feb-12 20:28N 51°15' E 004°22'0 0.0
2018-Feb-12 19:58N 51°15' E 004°22'0 0.0
2018-Feb-12 19:28N 51°15' E 004°22'0 0.0
2018-Feb-12 18:58N 51°15' E 004°22'0 0.0
2018-Feb-12 18:28N 51°15' E 004°22'0 0.0
2018-Feb-12 17:58N 51°15' E 004°22'0 0.0
2018-Feb-12 17:28N 51°15' E 004°22'0 0.0
2018-Feb-12 16:58N 51°15' E 004°22'0 0.0
2018-Feb-12 16:28N 51°15' E 004°22'0 0.0
2018-Feb-12 15:55N 51°15' E 004°22'0 0.0
2018-Feb-12 15:16N 51°15' E 004°22'0 0.0
2018-Feb-12 14:58N 51°15' E 004°22'0 0.0
2018-Feb-12 14:30N 51°15' E 004°22'2 3.7
2018-Feb-12 14:00N 51°17' E 004°20'0 0.0
2018-Feb-12 13:31N 51°17' E 004°20'1 1.6
2018-Feb-12 13:00N 51°17' E 004°19'4 8.5
2018-Feb-12 12:30N 51°21' E 004°15'4 8.3
2018-Feb-12 12:00N 51°23' E 004°10'510.0
2018-Feb-12 11:30N 51°24' E 004°02'3 6.0
2018-Feb-12 11:00N 51°23' E 003°57'612.0
2018-Feb-12 10:30N 51°21' E 003°49'612.0
2018-Feb-12 10:00N 51°25' E 003°41'611.9
2018-Feb-12 09:30N 51°27' E 003°32'611.4
2018-Feb-12 09:00N 51°31' E 003°26'610.9
2018-Feb-12 08:25N 51°37' E 003°22'510.9
2018-Feb-12 08:00N 51°41' E 003°17'28 9.9
2018-Feb-12 05:08N 52°08' E 003°29'1 9.1
2018-Feb-12 05:00N 52°09' E 003°30'4 8.6
2018-Feb-12 04:29N 52°12' E 003°36'4 8.9
2018-Feb-12 04:00N 52°15' E 003°40'5 8.8
2018-Feb-12 03:28N 52°19' E 003°44'4 8.4
2018-Feb-12 03:00N 52°22' E 003°48'3 7.0
2018-Feb-12 02:30N 52°24' E 003°54'3 6.7
2018-Feb-12 02:00N 52°25' E 003°59'3 7.0
2018-Feb-12 01:30N 52°26' E 004°04'3 6.6
2018-Feb-12 01:00N 52°27' E 004°09'3 6.7
2018-Feb-12 00:30N 52°27' E 004°15'3 6.2
2018-Feb-12 00:00N 52°28' E 004°20'3 5.8
2018-Feb-11 23:30N 52°28' E 004°24'3 6.9
2018-Feb-11 23:01N 52°28' E 004°30'4 7.1
2018-Feb-11 22:30N 52°28' E 004°36'1 1.7
2018-Feb-11 22:00N 52°28' E 004°37'5 9.4
2018-Feb-11 21:30N 52°26' E 004°44'4 7.3
2018-Feb-11 21:01N 52°24' E 004°49'0 0.8
2018-Feb-11 20:30N 52°24' E 004°50'0 0.0
2018-Feb-11 20:00N 52°24' E 004°50'0 0.0
2018-Feb-11 19:29N 52°24' E 004°50'0 0.0
2018-Feb-11 18:59N 52°24' E 004°50'0 0.0
2018-Feb-11 18:29N 52°24' E 004°50'0 0.0
2018-Feb-11 17:59N 52°24' E 004°50'0 0.0
2018-Feb-11 17:29N 52°24' E 004°50'0 0.0
2018-Feb-11 16:59N 52°24' E 004°50'0 0.0
2018-Feb-11 16:29N 52°24' E 004°50'0 0.0
2018-Feb-11 15:59N 52°24' E 004°50'0 0.0
2018-Feb-11 15:29N 52°24' E 004°50'0 0.0
2018-Feb-11 14:59N 52°24' E 004°50'0 0.0
2018-Feb-11 14:29N 52°24' E 004°50'0 0.0
2018-Feb-11 13:59N 52°24' E 004°50'0 0.0
2018-Feb-11 13:29N 52°24' E 004°50'0 0.0
2018-Feb-11 12:59N 52°24' E 004°50'0 0.0
2018-Feb-11 12:29N 52°24' E 004°50'0 0.0
2018-Feb-11 11:59N 52°24' E 004°50'0 0.0
2018-Feb-11 11:26N 52°24' E 004°50'0 0.0
2018-Feb-11 10:56N 52°24' E 004°50'0 0.0
2018-Feb-11 10:29N 52°24' E 004°50'0 0.0
2018-Feb-11 09:59N 52°24' E 004°50'0 0.0
2018-Feb-11 09:29N 52°24' E 004°50'0 0.0
2018-Feb-11 08:59N 52°24' E 004°50'0 0.0
2018-Feb-11 08:29N 52°24' E 004°50'0 0.0
2018-Feb-11 07:56N 52°24' E 004°50'0 0.0
2018-Feb-11 07:29N 52°24' E 004°50'0 0.0
2018-Feb-11 06:59N 52°24' E 004°50'0 0.0
2018-Feb-11 06:29N 52°24' E 004°50'0 0.0
2018-Feb-11 05:59N 52°24' E 004°50'0 0.0
2018-Feb-11 05:29N 52°24' E 004°50'0 0.0
2018-Feb-11 04:59N 52°24' E 004°50'0 0.0
2018-Feb-11 04:29N 52°24' E 004°50'0 0.0
2018-Feb-11 03:59N 52°24' E 004°50'0 0.0
2018-Feb-11 03:29N 52°24' E 004°50'0 0.0
2018-Feb-11 02:59N 52°24' E 004°50'0 0.0
2018-Feb-11 02:29N 52°24' E 004°50'0 0.0
2018-Feb-11 01:59N 52°24' E 004°50'0 0.0
2018-Feb-11 01:29N 52°24' E 004°50'0 0.0
2018-Feb-11 00:56N 52°24' E 004°50'0 0.0
2018-Feb-11 00:29N 52°24' E 004°50'0 0.0
2018-Feb-11 00:00N 52°24' E 004°50'1 1.7
2018-Feb-10 23:30N 52°25' E 004°49'4 8.0
2018-Feb-10 23:00N 52°26' E 004°43'4 8.4
2018-Feb-10 22:31N 52°28' E 004°37'1 1.4
2018-Feb-10 22:00N 52°28' E 004°36'3 6.6
2018-Feb-10 21:31N 52°28' E 004°30'3 6.4
2018-Feb-10 21:00N 52°29' E 004°25'4 8.9
2018-Feb-10 20:30N 52°29' E 004°18'5 8.8
2018-Feb-10 19:59N 52°29' E 004°10'3 7.2
2018-Feb-10 19:30N 52°32' E 004°07'4 7.3
2018-Feb-10 18:58N 52°36' E 004°04'  
Track history (hours):
 
Tides and Currents Weather Stations Pressure Air Temp Water Temp Dewpoint Dewpoint Depression Visibility Wind Speed Wind Dir Waves Ship Positions

Hav Skandic

Last reported at 2018-Feb-18 19:05 UTC. Time now 2018-Feb-23 22:36 UTC.
Position N 59°05' E 004°53'.

Length 75 m; draft 6.1 m.

Type: Cargo ship. MMSI: 231837000.

Date/timePositionNaut miles runAvg speedWind from/ knotsBaromVisibWave heightAir tempDewpointWater temp
2018-Feb-18 19:05N 59°05' E 004°53'1 9.8
2018-Feb-18 18:59N 59°04' E 004°54'5 9.8
2018-Feb-18 18:30N 59°03' E 005°03'5 9.2
2018-Feb-18 18:00N 59°03' E 005°12'5 9.8
2018-Feb-18 17:30N 59°06' E 005°21'510.0
2018-Feb-18 17:00N 59°07' E 005°30'510.0
2018-Feb-18 16:30N 59°06' E 005°40'5 9.2
2018-Feb-18 16:00N 59°04' E 005°48'3 6.6
2018-Feb-18 15:30N 59°05' E 005°54'0 0.0
2018-Feb-18 14:58N 59°05' E 005°54'0 0.0
2018-Feb-18 14:28N 59°05' E 005°54'0 0.0
2018-Feb-18 13:58N 59°05' E 005°54'0 0.0
2018-Feb-18 13:28N 59°05' E 005°54'0 0.0
2018-Feb-18 12:58N 59°05' E 005°54'0 0.0
2018-Feb-18 12:28N 59°05' E 005°54'0 0.0
2018-Feb-18 11:58N 59°05' E 005°54'0 0.2
2018-Feb-18 11:28N 59°05' E 005°54'0 0.0
2018-Feb-18 10:58N 59°05' E 005°54'0 0.0
2018-Feb-18 10:28N 59°05' E 005°54'0 0.0
2018-Feb-18 09:58N 59°05' E 005°54'0 0.0
2018-Feb-18 09:28N 59°05' E 005°54'0 0.0
2018-Feb-18 08:55N 59°05' E 005°54'0 0.0
2018-Feb-18 08:28N 59°05' E 005°54'0 0.0
2018-Feb-18 08:00N 59°05' E 005°54'0 0.9
2018-Feb-18 07:30N 59°05' E 005°53'5 9.2
2018-Feb-18 07:00N 59°04' E 005°45'5 9.6
2018-Feb-18 06:30N 59°07' E 005°37'5 9.3
2018-Feb-18 06:00N 59°06' E 005°28'4 8.7
2018-Feb-18 05:29N 59°03' E 005°21'5 9.4
2018-Feb-18 05:00N 58°59' E 005°21'5 9.4
2018-Feb-18 04:30N 58°54' E 005°22'5 9.7
2018-Feb-18 04:00N 58°49' E 005°23'5 9.2
2018-Feb-18 03:30N 58°45' E 005°24'4 9.0
2018-Feb-18 03:00N 58°41' E 005°28'5 9.1
2018-Feb-18 02:30N 58°37' E 005°32'5 9.6
2018-Feb-18 02:00N 58°33' E 005°37'5 9.8
2018-Feb-18 01:30N 58°29' E 005°42'5 9.6
2018-Feb-18 01:00N 58°25' E 005°49'4 8.6
2018-Feb-18 00:30N 58°22' E 005°55'4 7.9
2018-Feb-18 00:00N 58°20' E 006°01'4 7.5
2018-Feb-17 23:29N 58°17' E 006°06'4 7.5
2018-Feb-17 23:01N 58°15' E 006°11'4 7.3
2018-Feb-17 22:30N 58°12' E 006°16'4 7.6
2018-Feb-17 22:00N 58°09' E 006°21'5 9.3
2018-Feb-17 21:30N 58°06' E 006°27'510.2
2018-Feb-17 21:00N 58°03' E 006°34'510.5
2018-Feb-17 20:30N 58°01' E 006°44'5 9.9
2018-Feb-17 20:00N 57°59' E 006°52'5 9.7
2018-Feb-17 19:30N 57°57' E 007°01'510.0
2018-Feb-17 18:59N 57°56' E 007°10'5 9.7
2018-Feb-17 18:30N 57°56' E 007°19'5 9.5
2018-Feb-17 17:59N 57°57' E 007°28'4 8.7
2018-Feb-17 17:30N 57°57' E 007°36'4 8.7
2018-Feb-17 17:00N 57°59' E 007°44'510.6
2018-Feb-17 16:30N 58°01' E 007°53'510.1
2018-Feb-17 15:59N 58°02' E 008°03'510.5
2018-Feb-17 15:30N 58°04' E 008°12'510.9
2018-Feb-17 15:00N 58°07' E 008°20'611.0
2018-Feb-17 14:30N 58°12' E 008°26'3 6.5
2018-Feb-17 14:00N 58°14' E 008°23'0 0.0
2018-Feb-17 13:29N 58°14' E 008°23'0 0.0
2018-Feb-17 12:58N 58°14' E 008°23'0 0.0
2018-Feb-17 12:28N 58°14' E 008°23'0 0.0
2018-Feb-17 11:59N 58°14' E 008°23'0 0.0
2018-Feb-17 11:28N 58°14' E 008°23'0 0.0
2018-Feb-17 10:58N 58°14' E 008°23'0 0.0
2018-Feb-17 10:28N 58°14' E 008°23'0 0.0
2018-Feb-17 09:58N 58°14' E 008°23'0 0.0
2018-Feb-17 09:28N 58°14' E 008°23'0 0.0
2018-Feb-17 08:58N 58°14' E 008°23'0 0.0
2018-Feb-17 08:29N 58°14' E 008°23'0 0.0
2018-Feb-17 07:59N 58°14' E 008°23'0 0.0
2018-Feb-17 07:29N 58°14' E 008°23'0 0.0
2018-Feb-17 06:59N 58°14' E 008°23'0 0.0
2018-Feb-17 06:29N 58°14' E 008°23'0 0.0
2018-Feb-17 05:58N 58°14' E 008°23'0 0.0
2018-Feb-17 05:29N 58°14' E 008°23'0 0.0
2018-Feb-17 04:58N 58°14' E 008°23'0 0.0
2018-Feb-17 04:28N 58°14' E 008°23'0 0.0
2018-Feb-17 03:59N 58°14' E 008°23'0 0.0
2018-Feb-17 03:28N 58°14' E 008°23'0 0.0
2018-Feb-17 02:58N 58°14' E 008°23'0 0.0
2018-Feb-17 02:29N 58°14' E 008°23'0 0.0
2018-Feb-17 01:59N 58°14' E 008°23'0 0.0
2018-Feb-17 01:28N 58°14' E 008°23'0 0.0
2018-Feb-17 00:59N 58°14' E 008°23'0 0.0
2018-Feb-17 00:28N 58°14' E 008°23'0 0.0
2018-Feb-16 23:58N 58°14' E 008°23'0 0.0
2018-Feb-16 23:28N 58°14' E 008°23'0 0.0
2018-Feb-16 22:59N 58°14' E 008°23'0 0.0
2018-Feb-16 22:28N 58°14' E 008°23'0 0.0
2018-Feb-16 21:58N 58°14' E 008°23'0 0.0
2018-Feb-16 21:29N 58°14' E 008°23'0 0.0
2018-Feb-16 20:58N 58°14' E 008°23'0 0.0
2018-Feb-16 20:26N 58°14' E 008°23'0 0.0
2018-Feb-16 19:58N 58°14' E 008°23'0 0.0
2018-Feb-16 19:28N 58°14' E 008°23'0 0.0
2018-Feb-16 18:58N 58°14' E 008°23'0 0.0
2018-Feb-16 18:28N 58°14' E 008°23'0 0.0
2018-Feb-16 17:58N 58°14' E 008°23'0 0.0
2018-Feb-16 17:29N 58°14' E 008°23'0 0.0
2018-Feb-16 16:58N 58°14' E 008°23'0 0.0
2018-Feb-16 16:28N 58°14' E 008°23'0 0.0
2018-Feb-16 15:59N 58°14' E 008°23'0 0.0
2018-Feb-16 15:28N 58°14' E 008°23'0 0.0
2018-Feb-16 14:58N 58°14' E 008°23'0 0.0
2018-Feb-16 14:28N 58°14' E 008°23'0 0.0
2018-Feb-16 13:59N 58°14' E 008°23'0 0.0
2018-Feb-16 13:29N 58°14' E 008°23'0 0.0
2018-Feb-16 12:58N 58°14' E 008°23'0 0.0
2018-Feb-16 12:29N 58°14' E 008°23'0 0.0
2018-Feb-16 11:58N 58°14' E 008°23'0 0.0
2018-Feb-16 11:29N 58°14' E 008°23'0 0.0
2018-Feb-16 10:58N 58°14' E 008°23'0 0.0
2018-Feb-16 10:29N 58°14' E 008°23'0 0.0
2018-Feb-16 09:59N 58°14' E 008°23'0 0.0
2018-Feb-16 09:28N 58°14' E 008°23'0 0.0
2018-Feb-16 08:59N 58°14' E 008°23'0 0.0
2018-Feb-16 08:29N 58°14' E 008°23'0 0.0
2018-Feb-16 07:59N 58°14' E 008°23'0 0.0
2018-Feb-16 07:28N 58°14' E 008°23'0 0.0
2018-Feb-16 06:58N 58°14' E 008°23'0 0.0
2018-Feb-16 06:29N 58°14' E 008°23'0 0.0
2018-Feb-16 05:59N 58°14' E 008°23'0 0.0
2018-Feb-16 05:28N 58°14' E 008°23'0 0.0
2018-Feb-16 04:59N 58°14' E 008°23'0 0.0
2018-Feb-16 04:28N 58°14' E 008°23'0 0.0
2018-Feb-16 03:58N 58°14' E 008°23'0 0.0
2018-Feb-16 03:29N 58°14' E 008°23'0 0.0
2018-Feb-16 02:59N 58°14' E 008°23'0 0.0
2018-Feb-16 02:29N 58°14' E 008°23'0 0.0
2018-Feb-16 01:59N 58°14' E 008°23'0 0.0
2018-Feb-16 01:28N 58°14' E 008°23'0 0.0
2018-Feb-16 00:58N 58°14' E 008°23'0 0.0
2018-Feb-16 00:28N 58°14' E 008°23'0 0.0
2018-Feb-15 23:59N 58°14' E 008°23'1 3.1
2018-Feb-15 23:30N 58°13' E 008°25'4 8.6
2018-Feb-15 23:00N 58°09' E 008°23'4 9.0
2018-Feb-15 22:30N 58°06' E 008°17'5 9.3
2018-Feb-15 22:00N 58°04' E 008°09'3 6.7
2018-Feb-15 21:30N 58°02' E 008°04'4 7.6
2018-Feb-15 21:00N 57°58' E 008°01'4 7.5
2018-Feb-15 20:30N 57°55' E 007°58'4 8.6
2018-Feb-15 20:00N 57°51' E 007°54'4 8.1
2018-Feb-15 19:30N 57°48' E 007°51'4 7.6
2018-Feb-15 19:00N 57°44' E 007°46'270 8.6
2018-Feb-14 11:40N 53°34' E 004°47'2 8.9
2018-Feb-14 11:24N 53°31' E 004°46'6 8.8
2018-Feb-14 10:46N 53°26' E 004°42'21 8.9
2018-Feb-14 08:23N 53°07' E 004°28'4 9.2
2018-Feb-14 07:55N 53°03' E 004°24'44 9.6
2018-Feb-14 03:22N 52°28' E 003°41'4510.2
2018-Feb-13 22:56N 51°45' E 003°18'4 9.3
2018-Feb-13 22:28N 51°41' E 003°19'6 8.9
2018-Feb-13 21:48N 51°36' E 003°23'3 8.3
2018-Feb-13 21:30N 51°33' E 003°25'4 7.8
2018-Feb-13 21:00N 51°30' E 003°28'4 7.5
2018-Feb-13 20:30N 51°27' E 003°32'4 8.3
2018-Feb-13 20:00N 51°26' E 003°39'4 8.4
2018-Feb-13 19:30N 51°23' E 003°43'510.2
2018-Feb-13 19:00N 51°21' E 003°50'510.3
2018-Feb-13 18:30N 51°24' E 003°57'3 6.7
2018-Feb-13 18:00N 51°25' E 004°02'5 9.3
2018-Feb-13 17:30N 51°22' E 004°08'4 7.3
2018-Feb-13 17:00N 51°21' E 004°14'510.0
2018-Feb-13 16:30N 51°17' E 004°19'1 2.0
2018-Feb-13 16:01N 51°17' E 004°20'0 0.0
2018-Feb-13 15:31N 51°17' E 004°20'0 0.0
2018-Feb-13 15:01N 51°17' E 004°20'1 2.6
2018-Feb-13 14:30N 51°16' E 004°21'1 1.0
2018-Feb-13 13:55N 51°15' E 004°22'0 0.0
2018-Feb-13 13:28N 51°15' E 004°22'0 0.0
2018-Feb-13 12:58N 51°15' E 004°22'0 0.0
2018-Feb-13 12:28N 51°15' E 004°22'0 0.0
2018-Feb-13 11:58N 51°15' E 004°22'0 0.0
2018-Feb-13 11:28N 51°15' E 004°22'0 0.0
2018-Feb-13 10:58N 51°15' E 004°22'0 0.0
2018-Feb-13 10:28N 51°15' E 004°22'0 0.0
2018-Feb-13 09:58N 51°15' E 004°22'0 0.0
2018-Feb-13 09:28N 51°15' E 004°22'0 0.0
2018-Feb-13 08:58N 51°15' E 004°22'0 0.0
2018-Feb-13 08:28N 51°15' E 004°22'0 0.0
2018-Feb-13 07:58N 51°15' E 004°22'0 0.0
2018-Feb-13 07:28N 51°15' E 004°22'0 0.0
2018-Feb-13 06:52N 51°15' E 004°22'0 0.0
2018-Feb-13 06:28N 51°15' E 004°22'0 0.0
2018-Feb-13 05:58N 51°15' E 004°22'0 0.0
2018-Feb-13 05:28N 51°15' E 004°22'0 0.0
2018-Feb-13 04:58N 51°15' E 004°22'0 0.0
2018-Feb-13 04:28N 51°15' E 004°22'0 0.0
2018-Feb-13 03:58N 51°15' E 004°22'0 0.0
2018-Feb-13 03:28N 51°15' E 004°22'0 0.0
2018-Feb-13 02:55N 51°15' E 004°22'0 0.0
2018-Feb-13 02:28N 51°15' E 004°22'0 0.0
2018-Feb-13 01:58N 51°15' E 004°22'0 0.0
2018-Feb-13 01:28N 51°15' E 004°22'0 0.0
2018-Feb-13 00:58N 51°15' E 004°22'0 0.0
2018-Feb-13 00:25N 51°15' E 004°22'0 0.0
2018-Feb-12 23:58N 51°15' E 004°22'0 0.0
2018-Feb-12 23:28N 51°15' E 004°22'0 0.0
2018-Feb-12 22:58N 51°15' E 004°22'0 0.0
2018-Feb-12 22:28N 51°15' E 004°22'0 0.0
2018-Feb-12 21:58N 51°15' E 004°22'0 0.0
2018-Feb-12 21:25N 51°15' E 004°22'0 0.0
2018-Feb-12 20:58N 51°15' E 004°22'0 0.0
2018-Feb-12 20:28N 51°15' E 004°22'0 0.0
2018-Feb-12 19:58N 51°15' E 004°22'0 0.0
2018-Feb-12 19:28N 51°15' E 004°22'0 0.0
2018-Feb-12 18:58N 51°15' E 004°22'0 0.0
2018-Feb-12 18:28N 51°15' E 004°22'0 0.0
2018-Feb-12 17:58N 51°15' E 004°22'0 0.0
2018-Feb-12 17:28N 51°15' E 004°22'0 0.0
2018-Feb-12 16:58N 51°15' E 004°22'0 0.0
2018-Feb-12 16:28N 51°15' E 004°22'0 0.0
2018-Feb-12 15:55N 51°15' E 004°22'0 0.0
2018-Feb-12 15:16N 51°15' E 004°22'0 0.0
2018-Feb-12 14:58N 51°15' E 004°22'0 0.0
2018-Feb-12 14:30N 51°15' E 004°22'2 3.7
2018-Feb-12 14:00N 51°17' E 004°20'0 0.0
2018-Feb-12 13:31N 51°17' E 004°20'1 1.6
2018-Feb-12 13:00N 51°17' E 004°19'4 8.5
2018-Feb-12 12:30N 51°21' E 004°15'4 8.3
2018-Feb-12 12:00N 51°23' E 004°10'510.0
2018-Feb-12 11:30N 51°24' E 004°02'3 6.0
2018-Feb-12 11:00N 51°23' E 003°57'612.0
2018-Feb-12 10:30N 51°21' E 003°49'612.0
2018-Feb-12 10:00N 51°25' E 003°41'611.9
2018-Feb-12 09:30N 51°27' E 003°32'611.4
2018-Feb-12 09:00N 51°31' E 003°26'610.9
2018-Feb-12 08:25N 51°37' E 003°22'510.9
2018-Feb-12 08:00N 51°41' E 003°17'28 9.9
2018-Feb-12 05:08N 52°08' E 003°29'1 9.1
2018-Feb-12 05:00N 52°09' E 003°30'4 8.6
2018-Feb-12 04:29N 52°12' E 003°36'4 8.9
2018-Feb-12 04:00N 52°15' E 003°40'5 8.8
2018-Feb-12 03:28N 52°19' E 003°44'4 8.4
2018-Feb-12 03:00N 52°22' E 003°48'3 7.0
2018-Feb-12 02:30N 52°24' E 003°54'3 6.7
2018-Feb-12 02:00N 52°25' E 003°59'3 7.0
2018-Feb-12 01:30N 52°26' E 004°04'3 6.6
2018-Feb-12 01:00N 52°27' E 004°09'3 6.7
2018-Feb-12 00:30N 52°27' E 004°15'3 6.2
2018-Feb-12 00:00N 52°28' E 004°20'3 5.8
2018-Feb-11 23:30N 52°28' E 004°24'3 6.9
2018-Feb-11 23:01N 52°28' E 004°30'4 7.1
2018-Feb-11 22:30N 52°28' E 004°36'1 1.7
2018-Feb-11 22:00N 52°28' E 004°37'5 9.4
2018-Feb-11 21:30N 52°26' E 004°44'4 7.3
2018-Feb-11 21:01N 52°24' E 004°49'0 0.8
2018-Feb-11 20:30N 52°24' E 004°50'0 0.0
2018-Feb-11 20:00N 52°24' E 004°50'0 0.0
2018-Feb-11 19:29N 52°24' E 004°50'0 0.0
2018-Feb-11 18:59N 52°24' E 004°50'0 0.0
2018-Feb-11 18:29N 52°24' E 004°50'0 0.0
2018-Feb-11 17:59N 52°24' E 004°50'0 0.0
2018-Feb-11 17:29N 52°24' E 004°50'0 0.0
2018-Feb-11 16:59N 52°24' E 004°50'0 0.0
2018-Feb-11 16:29N 52°24' E 004°50'0 0.0
2018-Feb-11 15:59N 52°24' E 004°50'0 0.0
2018-Feb-11 15:29N 52°24' E 004°50'0 0.0
2018-Feb-11 14:59N 52°24' E 004°50'0 0.0
2018-Feb-11 14:29N 52°24' E 004°50'0 0.0
2018-Feb-11 13:59N 52°24' E 004°50'0 0.0
2018-Feb-11 13:29N 52°24' E 004°50'0 0.0
2018-Feb-11 12:59N 52°24' E 004°50'0 0.0
2018-Feb-11 12:29N 52°24' E 004°50'0 0.0
2018-Feb-11 11:59N 52°24' E 004°50'0 0.0
2018-Feb-11 11:26N 52°24' E 004°50'0 0.0
2018-Feb-11 10:56N 52°24' E 004°50'0 0.0
2018-Feb-11 10:29N 52°24' E 004°50'0 0.0
2018-Feb-11 09:59N 52°24' E 004°50'0 0.0
2018-Feb-11 09:29N 52°24' E 004°50'0 0.0
2018-Feb-11 08:59N 52°24' E 004°50'0 0.0
2018-Feb-11 08:29N 52°24' E 004°50'0 0.0
2018-Feb-11 07:56N 52°24' E 004°50'0 0.0
2018-Feb-11 07:29N 52°24' E 004°50'0 0.0
2018-Feb-11 06:59N 52°24' E 004°50'0 0.0
2018-Feb-11 06:29N 52°24' E 004°50'0 0.0
2018-Feb-11 05:59N 52°24' E 004°50'0 0.0
2018-Feb-11 05:29N 52°24' E 004°50'0 0.0
2018-Feb-11 04:59N 52°24' E 004°50'0 0.0
2018-Feb-11 04:29N 52°24' E 004°50'0 0.0
2018-Feb-11 03:59N 52°24' E 004°50'0 0.0
2018-Feb-11 03:29N 52°24' E 004°50'0 0.0
2018-Feb-11 02:59N 52°24' E 004°50'0 0.0
2018-Feb-11 02:29N 52°24' E 004°50'0 0.0
2018-Feb-11 01:59N 52°24' E 004°50'0 0.0
2018-Feb-11 01:29N 52°24' E 004°50'0 0.0
2018-Feb-11 00:56N 52°24' E 004°50'0 0.0
2018-Feb-11 00:29N 52°24' E 004°50'0 0.0
2018-Feb-11 00:00N 52°24' E 004°50'1 1.7
2018-Feb-10 23:30N 52°25' E 004°49'4 8.0
2018-Feb-10 23:00N 52°26' E 004°43'4 8.4
2018-Feb-10 22:31N 52°28' E 004°37'1 1.4
2018-Feb-10 22:00N 52°28' E 004°36'3 6.6
2018-Feb-10 21:31N 52°28' E 004°30'3 6.4
2018-Feb-10 21:00N 52°29' E 004°25'4 8.9
2018-Feb-10 20:30N 52°29' E 004°18'5 8.8
2018-Feb-10 19:59N 52°29' E 004°10'3 7.2
2018-Feb-10 19:30N 52°32' E 004°07'4 7.3
2018-Feb-10 18:58N 52°36' E 004°04'  

Dump ship's entire track history